Tanja Jacob — A8YR7 — position and weather

sailwx.info

Track history (hours):
 
Tides and Currents Weather Stations Pressure Air Temp Water Temp Dewpoint Dewpoint Depression Visibility Wind Speed Wind Dir Waves Ship Positions

Tanja Jacob

Last reported at 2015-Jul-20 01:33 UTC. Time now 2015-Jul-30 02:00 UTC.
Position N 32°06' W 117°42'.
Warning: this ship's position is 10 days out of date.

Length 227 m; draft 8.3 m.

Type: Ship. MMSI: 636092217.

Date/timePositionNaut miles runAvg speedWind from/ knotsBaromVisibWave heightAir tempDewpointWater temp
2015-Jul-20 01:33N 32°06' W 117°42'1313.4
2015-Jul-20 00:33N 32°19' W 117°45'1413.5
2015-Jul-19 23:33N 32°33' W 117°48'1313.3
2015-Jul-19 22:33N 32°45' W 117°53'1313.2
2015-Jul-19 21:33N 32°58' W 117°58'1413.6
2015-Jul-19 20:33N 33°11' W 118°03'2412.1
2015-Jul-19 18:34N 33°34' W 118°12'1010.1
2015-Jul-19 17:33N 33°44' W 118°12'1 1.2
2015-Jul-19 16:28N 33°43' W 118°13'0 0.1
2015-Jul-19 15:28N 33°43' W 118°13'0 0.0
2015-Jul-19 14:33N 33°43' W 118°13'0 0.0
2015-Jul-19 13:33N 33°43' W 118°13'0 0.0
2015-Jul-19 12:32N 33°43' W 118°13'0 0.1
2015-Jul-19 11:32N 33°43' W 118°13'0 0.1
2015-Jul-19 10:32N 33°43' W 118°13'3 2.9
2015-Jul-19 09:33N 33°45' W 118°16'1 0.7
2015-Jul-19 08:31N 33°46' W 118°16'0 0.0
2015-Jul-19 07:33N 33°46' W 118°16'0 0.0
2015-Jul-19 06:33N 33°46' W 118°16'0 0.0
2015-Jul-19 05:32N 33°46' W 118°16'0 0.0
2015-Jul-19 04:32N 33°46' W 118°16'0 0.0
2015-Jul-19 00:33N 33°46' W 118°16'0 0.0
2015-Jul-18 23:33N 33°46' W 118°16'0 0.0
2015-Jul-18 22:32N 33°46' W 118°16'0 0.0
2015-Jul-18 21:32N 33°46' W 118°16'0 0.0
2015-Jul-18 20:31N 33°46' W 118°16'0 0.0
2015-Jul-18 19:31N 33°46' W 118°16'0 0.0
2015-Jul-18 18:31N 33°46' W 118°16'0 0.0
2015-Jul-18 17:33N 33°46' W 118°16'0 0.0
2015-Jul-18 16:33N 33°46' W 118°16'0 0.0
2015-Jul-18 15:32N 33°46' W 118°16'0 0.0
2015-Jul-18 14:32N 33°46' W 118°16'0 0.0
2015-Jul-18 13:31N 33°46' W 118°16'0 0.0
2015-Jul-18 12:31N 33°46' W 118°16'0 0.0
2015-Jul-18 11:34N 33°46' W 118°16'0 0.0
2015-Jul-18 10:33N 33°46' W 118°16'0 0.0
2015-Jul-18 09:33N 33°46' W 118°16'0 0.0
2015-Jul-18 08:32N 33°46' W 118°16'0 0.0
2015-Jul-18 07:32N 33°46' W 118°16'0 0.0
2015-Jul-18 06:31N 33°46' W 118°16'0 0.0
2015-Jul-18 05:31N 33°46' W 118°16'0 0.0
2015-Jul-18 04:34N 33°46' W 118°16'0 0.0
2015-Jul-18 03:33N 33°46' W 118°16'0 0.0
2015-Jul-18 02:33N 33°46' W 118°16'0 0.0
2015-Jul-18 01:32N 33°46' W 118°16'0 0.0
2015-Jul-18 00:32N 33°46' W 118°16'0 0.0
2015-Jul-17 23:31N 33°46' W 118°16'0 0.0
2015-Jul-17 22:31N 33°46' W 118°16'0 0.0
2015-Jul-17 21:33N 33°46' W 118°16'0 0.0
2015-Jul-17 20:33N 33°46' W 118°16'0 0.0
2015-Jul-17 19:33N 33°46' W 118°16'0 0.0
2015-Jul-17 18:32N 33°46' W 118°16'0 0.0
2015-Jul-17 17:32N 33°46' W 118°16'0 0.0
2015-Jul-17 16:31N 33°46' W 118°16'0 0.0
2015-Jul-17 15:31N 33°46' W 118°16'0 0.0
2015-Jul-17 14:33N 33°46' W 118°16'0 0.0
2015-Jul-17 13:33N 33°46' W 118°16'0 0.0
2015-Jul-17 12:33N 33°46' W 118°16'0 0.0
2015-Jul-17 11:32N 33°46' W 118°16'0 0.0
2015-Jul-17 10:32N 33°46' W 118°16'0 0.0
2015-Jul-17 09:31N 33°46' W 118°16'0 0.0
2015-Jul-17 08:31N 33°46' W 118°16'0 0.0
2015-Jul-17 07:33N 33°46' W 118°16'0 0.0
2015-Jul-17 06:33N 33°46' W 118°16'0 0.0
2015-Jul-17 05:33N 33°46' W 118°16'0 0.0
2015-Jul-17 04:32N 33°46' W 118°16'0 0.0
2015-Jul-17 03:32N 33°46' W 118°16'0 0.0
2015-Jul-17 02:31N 33°46' W 118°16'0 0.0
2015-Jul-17 01:31N 33°46' W 118°16'0 0.5
2015-Jul-17 00:34N 33°45' W 118°16'6 6.0
2015-Jul-16 23:33N 33°40' W 118°13'6 5.6
2015-Jul-16 22:33N 33°35' W 118°09'7 7.3
2015-Jul-16 21:33N 33°28' W 118°07'8 7.9
2015-Jul-16 20:34N 33°21' W 118°03'8 8.0
2015-Jul-16 19:33N 33°13' W 118°01'8 8.3
2015-Jul-16 18:33N 33°05' W 117°59'8 8.3
2015-Jul-16 17:34N 32°57' W 117°58'7 7.3
2015-Jul-16 16:34N 32°50' W 117°56'1110.7
2015-Jul-16 15:33N 32°39' W 117°57'1413.7
2015-Jul-16 14:33N 32°25' W 117°59'1413.5
2015-Jul-16 13:33N 32°12' W 117°60'1313.3
2015-Jul-16 12:33N 31°59' W 117°59'1313.0
2015-Jul-16 11:33N 31°46' W 117°58'1312.9
2015-Jul-16 10:33N 31°33' W 117°58'1312.6
2015-Jul-16 09:33N 31°20' W 117°57'1412.7
2015-Jul-16 08:27N 31°06' W 117°57'1312.9
2015-Jul-16 07:25N 30°53' W 117°56'4312.9
2015-Jul-16 04:06N 30°10' W 117°54'712.8
2015-Jul-16 03:31N 30°03' W 117°54'3012.6
2015-Jul-16 01:08N 29°32' W 117°53'812.7
2015-Jul-16 00:32N 29°25' W 117°51'1312.8
2015-Jul-15 23:29N 29°12' W 117°47'  
Track history (hours):
 
Tides and Currents Weather Stations Pressure Air Temp Water Temp Dewpoint Dewpoint Depression Visibility Wind Speed Wind Dir Waves Ship Positions

Tanja Jacob

Last reported at 2015-Jul-20 01:33 UTC. Time now 2015-Jul-30 02:00 UTC.
Position N 32°06' W 117°42'.
Warning: this ship's position is 10 days out of date.

Length 227 m; draft 8.3 m.

Type: Ship. MMSI: 636092217.

Date/timePositionNaut miles runAvg speedWind from/ knotsBaromVisibWave heightAir tempDewpointWater temp
2015-Jul-20 01:33N 32°06' W 117°42'1313.4
2015-Jul-20 00:33N 32°19' W 117°45'1413.5
2015-Jul-19 23:33N 32°33' W 117°48'1313.3
2015-Jul-19 22:33N 32°45' W 117°53'1313.2
2015-Jul-19 21:33N 32°58' W 117°58'1413.6
2015-Jul-19 20:33N 33°11' W 118°03'2412.1
2015-Jul-19 18:34N 33°34' W 118°12'1010.1
2015-Jul-19 17:33N 33°44' W 118°12'1 1.2
2015-Jul-19 16:28N 33°43' W 118°13'0 0.1
2015-Jul-19 15:28N 33°43' W 118°13'0 0.0
2015-Jul-19 14:33N 33°43' W 118°13'0 0.0
2015-Jul-19 13:33N 33°43' W 118°13'0 0.0
2015-Jul-19 12:32N 33°43' W 118°13'0 0.1
2015-Jul-19 11:32N 33°43' W 118°13'0 0.1
2015-Jul-19 10:32N 33°43' W 118°13'3 2.9
2015-Jul-19 09:33N 33°45' W 118°16'1 0.7
2015-Jul-19 08:31N 33°46' W 118°16'0 0.0
2015-Jul-19 07:33N 33°46' W 118°16'0 0.0
2015-Jul-19 06:33N 33°46' W 118°16'0 0.0
2015-Jul-19 05:32N 33°46' W 118°16'0 0.0
2015-Jul-19 04:32N 33°46' W 118°16'0 0.0
2015-Jul-19 00:33N 33°46' W 118°16'0 0.0
2015-Jul-18 23:33N 33°46' W 118°16'0 0.0
2015-Jul-18 22:32N 33°46' W 118°16'0 0.0
2015-Jul-18 21:32N 33°46' W 118°16'0 0.0
2015-Jul-18 20:31N 33°46' W 118°16'0 0.0
2015-Jul-18 19:31N 33°46' W 118°16'0 0.0
2015-Jul-18 18:31N 33°46' W 118°16'0 0.0
2015-Jul-18 17:33N 33°46' W 118°16'0 0.0
2015-Jul-18 16:33N 33°46' W 118°16'0 0.0
2015-Jul-18 15:32N 33°46' W 118°16'0 0.0
2015-Jul-18 14:32N 33°46' W 118°16'0 0.0
2015-Jul-18 13:31N 33°46' W 118°16'0 0.0
2015-Jul-18 12:31N 33°46' W 118°16'0 0.0
2015-Jul-18 11:34N 33°46' W 118°16'0 0.0
2015-Jul-18 10:33N 33°46' W 118°16'0 0.0
2015-Jul-18 09:33N 33°46' W 118°16'0 0.0
2015-Jul-18 08:32N 33°46' W 118°16'0 0.0
2015-Jul-18 07:32N 33°46' W 118°16'0 0.0
2015-Jul-18 06:31N 33°46' W 118°16'0 0.0
2015-Jul-18 05:31N 33°46' W 118°16'0 0.0
2015-Jul-18 04:34N 33°46' W 118°16'0 0.0
2015-Jul-18 03:33N 33°46' W 118°16'0 0.0
2015-Jul-18 02:33N 33°46' W 118°16'0 0.0
2015-Jul-18 01:32N 33°46' W 118°16'0 0.0
2015-Jul-18 00:32N 33°46' W 118°16'0 0.0
2015-Jul-17 23:31N 33°46' W 118°16'0 0.0
2015-Jul-17 22:31N 33°46' W 118°16'0 0.0
2015-Jul-17 21:33N 33°46' W 118°16'0 0.0
2015-Jul-17 20:33N 33°46' W 118°16'0 0.0
2015-Jul-17 19:33N 33°46' W 118°16'0 0.0
2015-Jul-17 18:32N 33°46' W 118°16'0 0.0
2015-Jul-17 17:32N 33°46' W 118°16'0 0.0
2015-Jul-17 16:31N 33°46' W 118°16'0 0.0
2015-Jul-17 15:31N 33°46' W 118°16'0 0.0
2015-Jul-17 14:33N 33°46' W 118°16'0 0.0
2015-Jul-17 13:33N 33°46' W 118°16'0 0.0
2015-Jul-17 12:33N 33°46' W 118°16'0 0.0
2015-Jul-17 11:32N 33°46' W 118°16'0 0.0
2015-Jul-17 10:32N 33°46' W 118°16'0 0.0
2015-Jul-17 09:31N 33°46' W 118°16'0 0.0
2015-Jul-17 08:31N 33°46' W 118°16'0 0.0
2015-Jul-17 07:33N 33°46' W 118°16'0 0.0
2015-Jul-17 06:33N 33°46' W 118°16'0 0.0
2015-Jul-17 05:33N 33°46' W 118°16'0 0.0
2015-Jul-17 04:32N 33°46' W 118°16'0 0.0
2015-Jul-17 03:32N 33°46' W 118°16'0 0.0
2015-Jul-17 02:31N 33°46' W 118°16'0 0.0
2015-Jul-17 01:31N 33°46' W 118°16'0 0.5
2015-Jul-17 00:34N 33°45' W 118°16'6 6.0
2015-Jul-16 23:33N 33°40' W 118°13'6 5.6
2015-Jul-16 22:33N 33°35' W 118°09'7 7.3
2015-Jul-16 21:33N 33°28' W 118°07'8 7.9
2015-Jul-16 20:34N 33°21' W 118°03'8 8.0
2015-Jul-16 19:33N 33°13' W 118°01'8 8.3
2015-Jul-16 18:33N 33°05' W 117°59'8 8.3
2015-Jul-16 17:34N 32°57' W 117°58'7 7.3
2015-Jul-16 16:34N 32°50' W 117°56'1110.7
2015-Jul-16 15:33N 32°39' W 117°57'1413.7
2015-Jul-16 14:33N 32°25' W 117°59'1413.5
2015-Jul-16 13:33N 32°12' W 117°60'1313.3
2015-Jul-16 12:33N 31°59' W 117°59'1313.0
2015-Jul-16 11:33N 31°46' W 117°58'1312.9
2015-Jul-16 10:33N 31°33' W 117°58'1312.6
2015-Jul-16 09:33N 31°20' W 117°57'1412.7
2015-Jul-16 08:27N 31°06' W 117°57'1312.9
2015-Jul-16 07:25N 30°53' W 117°56'4312.9
2015-Jul-16 04:06N 30°10' W 117°54'712.8
2015-Jul-16 03:31N 30°03' W 117°54'3012.6
2015-Jul-16 01:08N 29°32' W 117°53'812.7
2015-Jul-16 00:32N 29°25' W 117°51'1312.8
2015-Jul-15 23:29N 29°12' W 117°47'  

Dump ship's entire track history